createdAt,value
2024-05-09T00:00:30.752Z,0.000000
2024-05-09T00:01:23.065Z,1.800004
2024-05-09T00:02:33.272Z,3.168008
2024-05-09T00:03:27.499Z,1.260003
2024-05-09T00:04:25.293Z,0.000000
2024-05-09T00:05:22.259Z,0.000000
2024-05-09T00:06:22.140Z,0.000000
2024-05-09T00:07:26.569Z,0.000000
2024-05-09T00:08:30.522Z,0.000000
2024-05-09T00:09:34.112Z,0.000000
2024-05-09T00:10:35.201Z,0.000000
2024-05-09T00:11:31.297Z,0.000000
2024-05-09T00:12:24.103Z,0.000000
2024-05-09T00:13:25.771Z,0.000000
2024-05-09T00:14:26.285Z,0.000000
2024-05-09T00:15:21.100Z,0.000000
2024-05-09T00:16:27.377Z,0.000000
2024-05-09T00:17:27.576Z,0.000000
2024-05-09T00:18:25.359Z,0.000000
2024-05-09T00:19:28.459Z,0.000000
2024-05-09T00:20:28.552Z,0.000000
2024-05-09T00:21:25.753Z,0.000000
2024-05-09T00:22:21.676Z,0.000000
2024-05-09T00:23:30.451Z,0.000000
2024-05-09T00:24:27.346Z,0.000000
2024-05-09T00:25:25.041Z,1.080003
2024-05-09T00:26:33.323Z,2.304006
2024-05-09T00:27:25.153Z,3.720009
2024-05-09T00:28:26.931Z,2.160005
2024-05-09T00:29:22.003Z,0.900002
2024-05-09T00:30:46.739Z,2.880007
2024-05-09T00:31:29.450Z,4.440011
2024-05-09T00:32:25.317Z,3.420009
2024-05-09T00:33:37.851Z,2.016005
2024-05-09T00:34:29.342Z,2.880007
2024-05-09T00:35:21.732Z,3.720009
2024-05-09T00:36:23.944Z,1.200003
2024-05-09T00:37:32.557Z,0.000000
2024-05-09T00:38:21.596Z,0.000000
2024-05-09T00:39:23.416Z,0.720002
2024-05-09T00:44:21.382Z,0.000000
2024-05-09T00:45:24.112Z,0.000000
2024-05-09T00:46:24.049Z,0.000000
2024-05-09T00:47:33.496Z,0.000000
2024-05-09T00:48:31.478Z,0.000000
2024-05-09T00:49:25.625Z,0.000000
2024-05-09T00:50:29.935Z,0.000000
2024-05-09T00:51:25.675Z,0.000000
2024-05-09T00:52:43.085Z,0.000000
2024-05-09T00:53:23.562Z,0.000000
2024-05-09T00:54:33.128Z,0.720002
2024-05-09T00:55:31.243Z,1.620004
2024-05-09T00:56:22.712Z,1.620004
2024-05-09T00:57:22.803Z,0.900002
2024-05-09T00:58:20.266Z,0.000000
2024-05-09T00:59:30.424Z,0.000000
2024-05-09T01:00:31.474Z,0.000000
2024-05-09T01:01:46.153Z,0.000000
2024-05-09T01:09:45.495Z,0.000000
2024-05-09T01:11:05.467Z,0.000000
2024-05-09T01:12:43.793Z,0.000000
2024-05-09T01:13:11.184Z,0.000000
2024-05-09T01:14:04.018Z,0.000000
2024-05-09T01:14:40.187Z,0.000000
2024-05-09T01:16:04.631Z,0.000000
2024-05-09T01:16:33.471Z,0.000000
2024-05-09T01:18:27.319Z,0.720002
2024-05-09T01:18:52.464Z,0.720002
2024-05-09T01:20:42.462Z,0.000000
2024-05-09T01:20:53.534Z,0.000000
2024-05-09T01:21:39.691Z,0.000000
2024-05-09T01:23:16.551Z,0.720002
2024-05-09T01:23:39.618Z,1.800004
2024-05-09T01:24:52.840Z,1.620004
2024-05-09T01:26:48.980Z,0.720002
2024-05-09T01:27:12.880Z,1.080003
2024-05-09T01:27:56.338Z,2.520006
2024-05-09T01:28:25.491Z,2.340006
2024-05-09T01:36:55.974Z,1.440004
2024-05-09T01:37:36.276Z,0.720002
2024-05-09T01:38:27.623Z,0.000000
2024-05-09T01:42:43.998Z,0.000000
2024-05-09T01:44:36.250Z,0.000000
2024-05-09T01:45:18.387Z,0.000000
2024-05-09T01:45:23.079Z,0.000000
2024-05-09T01:46:21.281Z,0.000000
2024-05-09T01:47:32.269Z,0.000000
2024-05-09T01:48:28.722Z,0.000000
2024-05-09T01:49:24.041Z,0.000000
2024-05-09T01:50:39.663Z,0.000000
2024-05-09T01:51:20.519Z,0.000000
2024-05-09T01:52:25.574Z,0.000000
2024-05-09T01:53:22.697Z,0.000000
2024-05-09T01:54:21.811Z,0.000000
2024-05-09T01:55:28.909Z,0.000000
2024-05-09T01:56:23.563Z,0.000000
2024-05-09T01:57:34.117Z,0.000000
2024-05-09T01:58:23.529Z,0.000000
2024-05-09T01:59:28.729Z,0.000000
2024-05-09T02:00:33.915Z,0.720002
2024-05-09T02:01:23.470Z,0.720002
2024-05-09T02:02:29.607Z,0.000000
2024-05-09T02:03:24.387Z,0.000000
2024-05-09T02:04:34.838Z,0.000000
2024-05-09T02:05:29.480Z,0.000000
2024-05-09T02:06:21.015Z,0.000000
2024-05-09T02:07:21.657Z,0.000000
2024-05-09T02:08:26.418Z,0.000000
2024-05-09T02:09:28.610Z,0.000000
2024-05-09T02:10:31.675Z,0.000000
2024-05-09T02:11:34.541Z,0.000000
2024-05-09T02:12:23.279Z,0.000000
2024-05-09T02:13:25.255Z,0.900002
2024-05-09T02:14:21.933Z,0.600001
2024-05-09T02:15:24.257Z,0.000000
2024-05-09T02:16:28.048Z,0.000000
2024-05-09T02:17:23.444Z,0.000000
2024-05-09T02:18:35.017Z,0.000000
2024-05-09T02:19:24.771Z,0.000000
2024-05-09T02:20:34.070Z,0.000000
2024-05-09T02:21:21.812Z,0.000000
2024-05-09T02:22:27.118Z,0.000000
2024-05-09T02:23:20.303Z,0.000000
2024-05-09T02:24:23.137Z,0.000000
2024-05-09T02:25:35.626Z,0.000000
2024-05-09T02:26:29.777Z,0.720002
2024-05-09T02:27:26.770Z,0.480001
2024-05-09T02:28:21.324Z,0.000000
2024-05-09T02:29:31.762Z,0.000000
2024-05-09T02:30:31.071Z,0.000000
2024-05-09T02:31:23.412Z,0.000000
2024-05-09T02:32:35.331Z,0.000000
2024-05-09T02:33:30.833Z,0.000000
2024-05-09T02:34:26.150Z,0.000000
2024-05-09T02:35:21.233Z,0.000000
2024-05-09T02:36:23.051Z,0.000000
2024-05-09T02:37:28.022Z,0.000000
2024-05-09T02:38:23.729Z,0.000000
2024-05-09T02:39:34.953Z,0.000000
2024-05-09T02:40:36.559Z,0.000000
2024-05-09T02:41:22.226Z,0.000000
2024-05-09T02:42:21.960Z,0.000000
2024-05-09T02:43:27.352Z,0.000000
2024-05-09T02:44:22.513Z,0.000000
2024-05-09T02:45:25.183Z,0.000000
2024-05-09T02:46:34.734Z,0.000000
2024-05-09T02:47:30.466Z,0.000000
2024-05-09T02:48:27.111Z,0.000000
2024-05-09T02:49:23.475Z,0.000000
2024-05-09T02:50:37.945Z,0.000000
2024-05-09T02:51:23.683Z,0.000000
2024-05-09T02:52:23.807Z,0.000000
2024-05-09T02:53:24.852Z,0.000000
2024-05-09T02:54:30.919Z,0.000000
2024-05-09T02:55:26.481Z,0.000000
2024-05-09T02:56:21.865Z,0.000000
2024-05-09T02:57:31.295Z,0.000000
2024-05-09T02:58:29.627Z,0.000000
2024-05-09T02:59:24.170Z,0.000000
2024-05-09T03:00:36.802Z,0.000000
2024-05-09T03:01:19.775Z,0.000000
2024-05-09T03:02:25.392Z,0.000000
2024-05-09T03:03:21.695Z,0.000000
2024-05-09T03:04:31.811Z,0.000000
2024-05-09T03:05:28.411Z,0.000000
2024-05-09T03:06:25.620Z,0.000000
2024-05-09T03:07:34.579Z,0.000000
2024-05-09T03:08:24.513Z,0.000000
2024-05-09T03:09:25.217Z,0.000000
2024-05-09T03:10:25.453Z,0.000000
2024-05-09T03:11:33.302Z,0.000000
2024-05-09T03:12:27.477Z,0.000000
2024-05-09T03:13:30.326Z,0.000000
2024-05-09T03:14:22.638Z,0.000000
2024-05-09T03:15:31.087Z,0.000000
2024-05-09T03:16:21.433Z,0.000000
2024-05-09T03:17:23.242Z,0.000000
2024-05-09T03:18:31.765Z,0.000000
2024-05-09T03:19:29.516Z,0.000000
2024-05-09T03:20:27.752Z,0.000000
2024-05-09T03:21:26.184Z,0.000000
2024-05-09T03:22:33.733Z,0.000000
2024-05-09T03:23:25.909Z,0.000000
2024-05-09T03:24:21.258Z,0.000000
2024-05-09T03:25:32.773Z,0.000000
2024-05-09T03:26:27.845Z,0.000000
2024-05-09T03:27:24.866Z,0.000000
2024-05-09T03:28:22.292Z,0.000000
2024-05-09T03:29:24.798Z,0.000000
2024-05-09T03:30:34.622Z,0.000000
2024-05-09T03:31:22.174Z,0.000000
2024-05-09T03:32:33.137Z,0.000000
2024-05-09T03:33:28.413Z,0.000000
2024-05-09T03:34:23.600Z,0.000000
2024-05-09T03:35:25.277Z,0.000000
2024-05-09T03:36:29.511Z,0.000000
2024-05-09T03:37:21.118Z,0.000000
2024-05-09T03:38:21.677Z,0.000000
2024-05-09T03:39:19.811Z,0.000000
2024-05-09T03:40:30.926Z,0.000000
2024-05-09T03:41:23.377Z,0.000000
2024-05-09T03:42:26.477Z,0.000000
2024-05-09T03:43:32.609Z,0.000000
2024-05-09T03:44:25.742Z,0.000000
2024-05-09T03:45:22.796Z,0.000000
2024-05-09T03:46:24.400Z,0.000000
2024-05-09T03:47:28.412Z,0.000000
2024-05-09T03:48:23.770Z,0.000000
2024-05-09T03:49:29.528Z,0.000000
2024-05-09T03:50:35.490Z,0.000000
2024-05-09T03:51:28.122Z,0.000000
2024-05-09T03:52:23.648Z,0.000000
2024-05-09T03:53:24.386Z,0.000000
2024-05-09T03:54:22.166Z,0.000000
2024-05-09T03:55:24.034Z,0.000000
2024-05-09T03:56:33.948Z,0.000000
2024-05-09T03:57:29.725Z,0.000000
2024-05-09T03:58:26.977Z,0.000000
2024-05-09T03:59:22.079Z,0.000000
2024-05-09T04:03:37.317Z,0.000000
2024-05-09T04:04:22.736Z,0.000000
2024-05-09T04:05:26.455Z,0.000000
2024-05-09T04:06:21.914Z,0.000000
2024-05-09T04:07:22.547Z,0.000000
2024-05-09T04:08:30.059Z,0.000000
2024-05-09T04:09:25.659Z,0.000000
2024-05-09T04:10:35.651Z,0.000000
2024-05-09T04:11:27.298Z,0.000000
2024-05-09T04:12:27.441Z,0.000000
2024-05-09T04:13:21.703Z,0.000000
2024-05-09T04:14:25.590Z,0.000000
2024-05-09T04:15:20.576Z,0.000000
2024-05-09T04:16:23.617Z,0.000000
2024-05-09T04:17:34.835Z,0.000000
2024-05-09T04:18:29.352Z,0.000000
2024-05-09T04:19:25.580Z,0.000000
2024-05-09T04:20:32.575Z,0.000000
2024-05-09T04:21:31.957Z,0.000000
2024-05-09T04:22:25.065Z,0.000000
2024-05-09T04:23:25.577Z,0.000000
2024-05-09T04:24:25.274Z,0.000000
2024-05-09T04:25:31.708Z,0.000000
2024-05-09T04:26:25.374Z,0.000000
2024-05-09T04:27:23.295Z,0.000000
2024-05-09T04:28:36.162Z,0.000000
2024-05-09T04:29:27.770Z,0.000000
2024-05-09T04:30:30.205Z,0.000000
2024-05-09T04:31:29.288Z,0.000000
2024-05-09T04:32:21.093Z,0.000000
2024-05-09T04:33:23.141Z,0.000000
2024-05-09T04:34:21.517Z,0.000000
2024-05-09T04:35:31.716Z,0.000000
2024-05-09T04:36:34.986Z,0.000000
2024-05-09T04:37:39.651Z,0.000000
2024-05-09T04:38:36.229Z,0.000000
2024-05-09T04:39:25.354Z,0.000000
2024-05-09T04:40:33.027Z,0.000000
2024-05-09T04:41:22.333Z,0.000000
2024-05-09T04:42:31.437Z,0.000000
2024-05-09T04:43:28.320Z,0.000000
2024-05-09T04:44:24.569Z,0.000000
2024-05-09T04:45:22.219Z,0.000000
2024-05-09T04:46:30.992Z,0.000000
2024-05-09T04:47:22.988Z,0.000000
2024-05-09T04:48:22.117Z,0.000000
2024-05-09T04:49:33.409Z,0.000000
2024-05-09T04:50:36.460Z,0.000000
2024-05-09T04:51:24.376Z,0.000000
2024-05-09T04:52:24.978Z,0.000000
2024-05-09T04:53:31.423Z,0.000000
2024-05-09T04:54:36.130Z,0.000000
2024-05-09T04:55:25.431Z,0.000000
2024-05-09T04:56:39.192Z,0.000000
2024-05-09T04:57:27.596Z,0.000000
2024-05-09T04:58:25.659Z,0.000000
2024-05-09T04:59:29.121Z,0.000000
2024-05-09T05:00:28.902Z,0.000000
2024-05-09T05:01:26.818Z,0.000000
2024-05-09T05:02:24.083Z,0.000000
2024-05-09T05:03:33.310Z,0.000000
2024-05-09T05:04:27.551Z,0.000000
2024-05-09T05:05:26.162Z,0.000000
2024-05-09T05:06:35.251Z,0.000000
2024-05-09T05:07:25.566Z,0.000000
2024-05-09T05:08:27.419Z,0.000000
2024-05-09T05:09:24.257Z,0.000000
2024-05-09T05:10:32.998Z,0.000000
2024-05-09T05:11:27.692Z,0.000000
2024-05-09T05:12:25.784Z,0.000000
2024-05-09T05:13:41.340Z,0.000000
2024-05-09T05:14:29.369Z,0.000000
2024-05-09T05:15:26.785Z,0.000000
2024-05-09T05:16:21.472Z,0.000000
2024-05-09T05:17:26.664Z,0.000000
2024-05-09T05:18:28.300Z,0.000000
2024-05-09T05:19:24.804Z,0.000000
2024-05-09T05:20:30.679Z,0.000000
2024-05-09T05:21:29.754Z,0.000000
2024-05-09T05:22:28.765Z,0.000000
2024-05-09T05:23:22.219Z,0.000000
2024-05-09T05:24:33.180Z,0.000000
2024-05-09T05:25:24.263Z,0.000000
2024-05-09T05:26:23.425Z,0.000000
2024-05-09T05:27:19.957Z,0.000000
2024-05-09T05:28:39.814Z,0.000000
2024-05-09T05:29:25.889Z,0.000000
2024-05-09T05:30:29.346Z,0.000000
2024-05-09T05:31:34.101Z,0.000000
2024-05-09T05:32:30.339Z,0.000000
2024-05-09T05:33:24.824Z,0.000000
2024-05-09T05:34:19.615Z,0.000000
2024-05-09T05:35:33.200Z,0.000000
2024-05-09T05:36:27.804Z,0.000000
2024-05-09T05:37:21.683Z,0.000000
2024-05-09T05:38:26.094Z,0.000000
2024-05-09T05:39:31.697Z,0.000000
2024-05-09T05:40:40.056Z,0.000000
2024-05-09T05:41:20.951Z,0.000000
2024-05-09T05:42:29.936Z,0.000000
2024-05-09T05:43:25.631Z,0.000000
2024-05-09T05:44:22.982Z,0.000000
2024-05-09T05:45:25.848Z,0.000000
2024-05-09T05:46:28.262Z,0.000000
2024-05-09T05:47:23.605Z,0.000000
2024-05-09T05:48:20.839Z,0.000000
2024-05-09T05:49:22.839Z,0.000000
2024-05-09T05:50:32.524Z,0.000000
2024-05-09T05:51:23.376Z,0.000000
2024-05-09T05:52:32.699Z,0.000000
2024-05-09T05:53:23.479Z,0.000000
2024-05-09T05:54:23.517Z,0.000000
2024-05-09T05:55:19.636Z,0.000000
2024-05-09T05:56:23.699Z,0.000000
2024-05-09T05:57:26.557Z,0.000000
2024-05-09T05:58:21.542Z,0.000000
2024-05-09T05:59:35.128Z,0.000000
2024-05-09T06:00:37.670Z,0.000000
2024-05-09T06:01:23.607Z,0.000000
2024-05-09T06:02:19.705Z,0.000000
2024-05-09T06:03:24.187Z,0.000000
2024-05-09T06:04:25.631Z,0.000000
2024-05-09T06:05:24.265Z,0.000000
2024-05-09T06:06:39.041Z,0.000000
2024-05-09T06:07:21.548Z,0.000000
2024-05-09T06:08:28.026Z,0.000000
2024-05-09T06:09:20.186Z,0.000000
2024-05-09T06:10:34.763Z,0.000000
2024-05-09T06:11:25.559Z,0.000000
2024-05-09T06:12:21.936Z,0.000000
2024-05-09T06:13:39.936Z,0.000000
2024-05-09T06:14:24.995Z,0.000000
2024-05-09T06:15:24.451Z,0.000000
2024-05-09T06:16:35.499Z,0.000000
2024-05-09T06:17:34.526Z,0.000000
2024-05-09T06:18:21.805Z,0.000000
2024-05-09T06:19:21.511Z,0.000000
2024-05-09T06:20:38.377Z,0.000000
2024-05-09T06:24:29.813Z,0.000000
2024-05-09T06:25:22.564Z,0.000000
2024-05-09T06:30:29.887Z,0.000000
2024-05-09T06:31:22.237Z,0.000000
2024-05-09T06:32:25.671Z,0.000000
2024-05-09T06:33:21.833Z,0.000000
2024-05-09T06:34:32.830Z,0.000000
2024-05-09T06:42:30.408Z,0.000000
2024-05-09T06:43:23.609Z,0.000000
2024-05-09T06:44:21.030Z,0.000000
2024-05-09T06:45:30.833Z,0.000000
2024-05-09T06:46:23.035Z,0.000000
2024-05-09T06:47:21.590Z,0.000000
2024-05-09T06:48:26.542Z,0.000000
2024-05-09T06:49:28.627Z,0.000000
2024-05-09T06:50:31.473Z,0.000000
2024-05-09T06:51:19.639Z,0.000000
2024-05-09T06:52:32.798Z,0.000000
2024-05-09T06:53:27.818Z,0.000000
2024-05-09T06:54:22.325Z,0.000000
2024-05-09T06:55:34.064Z,0.000000
2024-05-09T06:56:24.308Z,0.000000
2024-05-09T06:57:24.974Z,0.000000
2024-05-09T06:58:20.258Z,0.000000
2024-05-09T06:59:30.121Z,0.000000
2024-05-09T07:00:35.659Z,0.000000
2024-05-09T07:01:24.823Z,0.000000
2024-05-09T07:02:31.617Z,0.000000
2024-05-09T07:03:29.061Z,0.000000
2024-05-09T07:04:20.609Z,0.000000
2024-05-09T07:05:19.933Z,0.000000
2024-05-09T07:06:30.777Z,0.000000
2024-05-09T07:07:27.911Z,0.000000
2024-05-09T07:08:23.795Z,0.000000
2024-05-09T07:09:31.900Z,0.000000
2024-05-09T07:10:33.116Z,0.000000
2024-05-09T07:11:26.725Z,0.000000
2024-05-09T07:12:22.772Z,0.000000
2024-05-09T07:13:29.752Z,0.000000
2024-05-09T07:14:27.179Z,0.000000
2024-05-09T07:15:22.039Z,0.000000
2024-05-09T07:16:23.532Z,0.000000
2024-05-09T07:17:29.331Z,0.000000
2024-05-09T07:18:25.826Z,0.000000
2024-05-09T07:19:21.820Z,0.000000
2024-05-09T07:20:34.555Z,0.000000
2024-05-09T07:21:27.780Z,0.000000
2024-05-09T07:22:22.656Z,0.000000
2024-05-09T07:23:22.585Z,0.000000
2024-05-09T07:24:20.695Z,0.000000
2024-05-09T07:25:23.678Z,0.000000
2024-05-09T07:26:19.744Z,0.000000
2024-05-09T07:27:30.229Z,0.000000
2024-05-09T07:28:27.660Z,0.000000
2024-05-09T07:29:22.063Z,0.000000
2024-05-09T07:30:34.475Z,0.000000
2024-05-09T07:31:26.843Z,0.000000
2024-05-09T07:32:24.368Z,0.000000
2024-05-09T07:33:23.271Z,0.000000
2024-05-09T07:34:24.319Z,0.000000
2024-05-09T07:35:26.093Z,0.000000
2024-05-09T07:36:27.450Z,0.000000
2024-05-09T07:37:31.835Z,0.000000
2024-05-09T07:38:33.642Z,0.000000
2024-05-09T07:39:25.362Z,0.000000
2024-05-09T07:40:31.806Z,0.000000
2024-05-09T07:41:23.562Z,0.000000
2024-05-09T07:42:22.415Z,0.000000
2024-05-09T07:43:23.724Z,0.000000
2024-05-09T07:44:34.453Z,0.000000
2024-05-09T07:45:45.192Z,0.000000
2024-05-09T07:47:34.795Z,0.000000
2024-05-09T07:48:57.484Z,0.000000
2024-05-09T07:50:34.468Z,0.000000
2024-05-09T07:52:01.184Z,0.000000
2024-05-09T07:53:20.413Z,0.000000
2024-05-09T07:53:36.167Z,0.000000
2024-05-09T07:53:46.341Z,0.000000
2024-05-09T07:53:52.563Z,0.000000
2024-05-09T07:53:58.285Z,0.000000
2024-05-09T07:54:23.014Z,0.000000
2024-05-09T07:55:29.846Z,0.000000
2024-05-09T07:56:31.612Z,0.000000
2024-05-09T07:57:22.628Z,0.000000
2024-05-09T07:58:32.586Z,0.000000
2024-05-09T07:59:25.206Z,0.000000
2024-05-09T08:00:30.901Z,0.000000
2024-05-09T08:01:21.173Z,0.000000
2024-05-09T08:02:30.851Z,0.000000
2024-05-09T08:03:25.648Z,0.000000
2024-05-09T08:04:23.046Z,0.000000
2024-05-09T08:05:33.060Z,0.000000
2024-05-09T08:06:27.578Z,0.000000
2024-05-09T08:07:25.464Z,0.000000
2024-05-09T08:08:19.862Z,0.000000
2024-05-09T08:09:24.167Z,0.000000
2024-05-09T08:10:27.463Z,0.000000
2024-05-09T08:11:22.478Z,0.000000
2024-05-09T08:12:23.066Z,0.000000
2024-05-09T08:13:30.539Z,0.000000
2024-05-09T08:14:26.069Z,0.000000
2024-05-09T08:15:20.548Z,0.000000
2024-05-09T08:16:30.286Z,0.000000
2024-05-09T08:17:29.680Z,0.000000
2024-05-09T08:18:22.750Z,0.000000
2024-05-09T08:19:29.950Z,0.000000
2024-05-09T08:20:30.150Z,0.000000
2024-05-09T08:21:24.031Z,0.000000
2024-05-09T08:22:21.910Z,0.000000
2024-05-09T08:23:32.897Z,0.000000
2024-05-09T08:24:26.567Z,0.000000
2024-05-09T08:25:22.376Z,0.000000
2024-05-09T08:26:33.903Z,0.000000
2024-05-09T08:27:25.097Z,0.000000
2024-05-09T08:28:24.357Z,0.000000
2024-05-09T08:29:19.653Z,0.000000
2024-05-09T08:30:36.368Z,0.000000
2024-05-09T08:31:28.729Z,0.000000
2024-05-09T08:32:23.045Z,0.000000
2024-05-09T08:33:32.270Z,0.000000
2024-05-09T08:34:29.685Z,0.000000
2024-05-09T08:35:25.642Z,0.000000
2024-05-09T08:36:20.153Z,0.000000
2024-05-09T08:37:35.013Z,0.000000
2024-05-09T08:38:28.259Z,0.000000
2024-05-09T08:39:22.095Z,0.000000
2024-05-09T08:40:36.115Z,0.000000
2024-05-09T08:41:27.799Z,0.000000
2024-05-09T08:42:29.610Z,0.000000
2024-05-09T08:43:20.604Z,0.000000
2024-05-09T08:44:30.066Z,0.000000
2024-05-09T08:45:32.551Z,0.000000
2024-05-09T08:46:23.740Z,0.000000
2024-05-09T08:47:22.992Z,0.000000
2024-05-09T08:48:28.328Z,0.000000
2024-05-09T08:49:25.451Z,0.000000
2024-05-09T08:50:35.630Z,0.000000
2024-05-09T08:51:30.455Z,0.000000
2024-05-09T08:52:29.278Z,0.000000
2024-05-09T08:53:25.759Z,0.000000
2024-05-09T08:57:26.126Z,0.000000
2024-05-09T08:58:23.145Z,0.000000
2024-05-09T08:59:28.617Z,0.000000
2024-05-09T09:03:28.740Z,0.000000
2024-05-09T09:04:20.752Z,0.000000
2024-05-09T09:05:25.856Z,0.000000
2024-05-09T09:06:26.294Z,0.000000
2024-05-09T09:07:22.198Z,0.000000
2024-05-09T09:08:34.901Z,0.000000
2024-05-09T09:09:31.264Z,0.000000
2024-05-09T09:10:29.279Z,0.000000
2024-05-09T09:11:20.339Z,0.000000
2024-05-09T09:12:32.896Z,0.000000
2024-05-09T09:13:21.793Z,0.000000
2024-05-09T09:14:22.010Z,0.000000
2024-05-09T09:15:23.580Z,0.000000
2024-05-09T09:16:28.236Z,0.000000
2024-05-09T09:17:25.605Z,0.000000
2024-05-09T09:18:21.806Z,0.000000
2024-05-09T09:19:29.748Z,0.000000
2024-05-09T09:20:39.958Z,0.000000
2024-05-09T09:21:23.479Z,0.000000
2024-05-09T09:22:34.286Z,0.000000
2024-05-09T09:23:27.394Z,0.000000
2024-05-09T09:24:24.488Z,0.000000
2024-05-09T09:25:24.088Z,0.000000
2024-05-09T09:26:29.898Z,0.000000
2024-05-09T09:27:25.461Z,0.000000
2024-05-09T09:28:23.204Z,0.000000
2024-05-09T09:29:28.070Z,0.000000
2024-05-09T09:30:35.385Z,0.000000
2024-05-09T09:31:26.594Z,0.000000
2024-05-09T09:32:20.440Z,0.000000
2024-05-09T09:33:22.948Z,0.000000
2024-05-09T09:34:28.237Z,0.000000
2024-05-09T09:35:23.702Z,0.000000
2024-05-09T09:36:22.532Z,0.000000
2024-05-09T09:37:28.328Z,0.000000
2024-05-09T09:38:23.647Z,0.000000
2024-05-09T09:39:21.219Z,0.000000
2024-05-09T09:40:32.126Z,0.000000
2024-05-09T09:41:26.393Z,0.000000
2024-05-09T09:42:23.465Z,0.000000
2024-05-09T09:43:25.140Z,0.000000
2024-05-09T09:44:20.697Z,0.000000
2024-05-09T09:45:25.564Z,0.000000
2024-05-09T09:46:19.750Z,0.000000
2024-05-09T09:47:30.620Z,0.000000
2024-05-09T09:48:26.819Z,0.000000
2024-05-09T09:49:21.994Z,0.000000
2024-05-09T09:50:34.309Z,0.000000
2024-05-09T09:51:23.702Z,0.000000
2024-05-09T09:52:26.303Z,0.000000
2024-05-09T09:53:21.642Z,0.000000
2024-05-09T09:57:33.992Z,0.000000
2024-05-09T09:58:27.808Z,0.000000
2024-05-09T09:59:24.027Z,0.000000
2024-05-09T10:00:27.198Z,0.000000
2024-05-09T10:01:29.586Z,0.000000
2024-05-09T10:02:23.723Z,0.000000
2024-05-09T10:03:22.579Z,0.000000
2024-05-09T10:04:33.711Z,0.000000
2024-05-09T10:05:31.780Z,0.000000
2024-05-09T10:06:24.183Z,0.000000
2024-05-09T10:07:19.729Z,0.000000
2024-05-09T10:08:30.165Z,0.000000
2024-05-09T10:09:26.665Z,0.000000
2024-05-09T10:10:31.562Z,0.000000
2024-05-09T10:11:41.659Z,0.000000
2024-05-09T10:12:28.302Z,0.000000
2024-05-09T10:13:24.048Z,0.000000
2024-05-09T10:14:20.157Z,0.000000
2024-05-09T10:15:32.169Z,0.000000
2024-05-09T10:16:26.105Z,0.000000
2024-05-09T10:17:23.143Z,0.000000
2024-05-09T10:18:21.638Z,0.000000
2024-05-09T10:19:28.128Z,0.000000
2024-05-09T10:20:28.177Z,0.000000
2024-05-09T10:21:19.605Z,0.000000
2024-05-09T10:22:31.422Z,0.000000
2024-05-09T10:23:26.211Z,0.000000
2024-05-09T10:24:22.115Z,0.000000
2024-05-09T10:25:25.527Z,0.000000
2024-05-09T10:26:27.833Z,0.000000
2024-05-09T10:27:26.659Z,0.000000
2024-05-09T10:28:20.515Z,0.000000
2024-05-09T10:30:57.519Z,0.000000
2024-05-09T10:32:45.195Z,0.000000
2024-05-09T10:33:00.058Z,0.000000
2024-05-09T10:33:07.156Z,0.000000
2024-05-09T10:34:25.045Z,0.000000
2024-05-09T10:35:20.744Z,0.000000
2024-05-09T10:36:28.685Z,0.000000
2024-05-09T10:37:25.895Z,0.000000
2024-05-09T10:38:24.161Z,0.000000
2024-05-09T10:39:34.244Z,0.000000
2024-05-09T10:40:31.443Z,0.000000
2024-05-09T10:41:24.699Z,0.000000
2024-05-09T10:42:20.110Z,0.000000
2024-05-09T10:43:45.756Z,0.000000
2024-05-09T10:44:23.629Z,0.000000
2024-05-09T10:45:21.813Z,0.000000
2024-05-09T10:46:32.122Z,0.000000
2024-05-09T10:47:33.973Z,0.000000
2024-05-09T10:48:23.793Z,0.000000
2024-05-09T10:49:21.603Z,0.000000
2024-05-09T10:50:34.155Z,1.728004
2024-05-09T10:51:29.387Z,3.960010
2024-05-09T10:52:21.831Z,2.400006
2024-05-09T10:53:33.233Z,0.900002
2024-05-09T10:54:27.964Z,0.900002
2024-05-09T10:55:24.305Z,2.160005
2024-05-09T10:56:20.415Z,2.970007
2024-05-09T10:57:31.552Z,2.592006
2024-05-09T10:58:26.485Z,0.000000
2024-05-09T10:59:24.410Z,0.720002
2024-05-09T11:00:36.351Z,0.864002
2024-05-09T11:01:28.527Z,0.000000
2024-05-09T11:02:25.420Z,0.000000
2024-05-09T11:03:20.500Z,0.000000
2024-05-09T11:04:30.963Z,1.584004
2024-05-09T11:05:26.311Z,1.980005
2024-05-09T11:06:21.506Z,1.080003
2024-05-09T11:07:24.043Z,1.296003
2024-05-09T11:11:24.263Z,0.000000
2024-05-09T11:12:27.645Z,0.000000
2024-05-09T11:13:22.280Z,0.000000
2024-05-09T11:14:33.390Z,0.000000
2024-05-09T11:15:27.860Z,0.000000
2024-05-09T11:16:26.287Z,0.000000
2024-05-09T11:17:22.288Z,0.000000
2024-05-09T11:18:25.284Z,0.000000
2024-05-09T11:19:25.774Z,0.000000
2024-05-09T11:20:29.103Z,0.000000
2024-05-09T11:21:33.942Z,0.000000
2024-05-09T11:22:23.057Z,0.000000
2024-05-09T11:23:25.107Z,0.000000
2024-05-09T11:24:21.259Z,0.360001
2024-05-09T11:25:30.108Z,1.080003
2024-05-09T11:26:22.515Z,1.440004
2024-05-09T11:27:21.951Z,0.720002
2024-05-09T11:28:34.199Z,0.000000
2024-05-09T11:29:28.574Z,0.000000
2024-05-09T11:30:27.039Z,0.000000
2024-05-09T11:31:21.867Z,0.000000
2024-05-09T11:32:33.337Z,0.000000
2024-05-09T11:33:27.266Z,0.000000
2024-05-09T11:34:22.145Z,0.000000
2024-05-09T11:35:32.375Z,0.000000
2024-05-09T11:36:24.130Z,0.000000
2024-05-09T11:37:24.784Z,0.000000
2024-05-09T11:38:21.624Z,0.000000
2024-05-09T11:39:30.556Z,0.000000
2024-05-09T11:40:32.328Z,0.000000
2024-05-09T11:41:23.623Z,0.000000
2024-05-09T11:42:31.883Z,0.000000
2024-05-09T11:43:29.496Z,0.000000
2024-05-09T11:44:24.582Z,0.000000
2024-05-09T11:45:21.818Z,0.000000
2024-05-09T11:46:32.761Z,0.000000
2024-05-09T11:47:27.174Z,0.000000
2024-05-09T11:48:23.014Z,0.000000
2024-05-09T11:49:25.340Z,0.000000
2024-05-09T11:50:32.826Z,0.000000
2024-05-09T11:51:26.578Z,0.000000
2024-05-09T11:55:26.827Z,0.000000
2024-05-09T11:56:24.267Z,1.296003
2024-05-09T11:57:30.854Z,2.340006
2024-05-09T11:58:24.033Z,0.720002
2024-05-09T11:59:21.074Z,0.540001
2024-05-09T12:00:33.724Z,2.592006
2024-05-09T12:01:27.820Z,2.700007
2024-05-09T12:02:25.466Z,2.340006
2024-05-09T12:03:32.754Z,3.816009
2024-05-09T12:04:21.657Z,2.880007
2024-05-09T12:05:26.660Z,0.900002
2024-05-09T12:06:20.159Z,1.890005
2024-05-09T12:07:28.664Z,2.160005
2024-05-09T12:08:20.056Z,1.800004
2024-05-09T12:09:21.710Z,0.720002
2024-05-09T12:10:35.817Z,0.000000
2024-05-09T12:11:28.736Z,0.000000
2024-05-09T12:12:24.916Z,0.000000
2024-05-09T12:13:20.113Z,0.480001
2024-05-09T12:14:31.170Z,0.864002
2024-05-09T12:15:26.097Z,0.720002
2024-05-09T12:16:23.764Z,0.480001
2024-05-09T12:17:33.146Z,0.000000
2024-05-09T12:18:31.631Z,1.980005
2024-05-09T12:19:26.944Z,3.600009
2024-05-09T12:20:28.578Z,2.760007
2024-05-09T12:21:30.093Z,1.080003
2024-05-09T12:25:27.559Z,1.440004
2024-05-09T12:26:28.163Z,0.720002
2024-05-09T12:27:19.925Z,0.540001
2024-05-09T12:28:30.332Z,1.296003
2024-05-09T12:29:26.850Z,0.000000
2024-05-09T12:30:32.502Z,2.400006
2024-05-09T12:31:32.065Z,3.024008
2024-05-09T12:32:28.486Z,1.800004
2024-05-09T12:33:24.063Z,0.720002
2024-05-09T12:34:19.715Z,0.450001
2024-05-09T12:35:30.585Z,2.088005
2024-05-09T12:36:27.871Z,1.980005
2024-05-09T12:37:22.148Z,0.720002
2024-05-09T12:38:22.702Z,0.000000
2024-05-09T12:39:30.243Z,0.720002
2024-05-09T12:40:34.124Z,0.720002